Ace, Texas
Current Conditions -  °F | °C
As of 10:53 PM on Friday 21 Nov 2014 (Local Time) from KCXO Reporting Station
Overcast Overcast  
Wind Chill: 61°   Ceiling: 1900
Heat Index: 61°   Visibility: 10mi
Dew Point: 58°   Wind: 8mph
Humidity: 90%   Direction: 120°ESE
Pressure: 30.17"   Gusts: NA
Location:  30.54°N, 94.82°W
Report Text: KCXO 220453Z AUTO 12007KT 10SM OVC019 16/14 A3017 RMK AO2 SLP215 T01610144
Loading
Personal Weather Stations






























Interactive Weather Map New forecast layout! Learn more

10-Day Weather Forecast

Advertisements
Track Severe Weather on mobile